sensor_id;sensor_type;location;lat;lon;timestamp;P1;durP1;ratioP1;P2;durP2;ratioP2
9759;SDS011;4919;48.792;9.202;2022-11-30T00:00:33;55.57;;;32.13;;
9759;SDS011;4919;48.792;9.202;2022-11-30T00:03:00;62.33;;;32.67;;
9759;SDS011;4919;48.792;9.202;2022-11-30T00:05:27;56.77;;;31.77;;
9759;SDS011;4919;48.792;9.202;2022-11-30T00:07:54;55.87;;;30.40;;
9759;SDS011;4919;48.792;9.202;2022-11-30T00:10:21;60.53;;;32.00;;
9759;SDS011;4919;48.792;9.202;2022-11-30T00:12:50;57.40;;;32.00;;
9759;SDS011;4919;48.792;9.202;2022-11-30T00:15:16;57.60;;;31.60;;
9759;SDS011;4919;48.792;9.202;2022-11-30T00:17:43;60.67;;;33.27;;
9759;SDS011;4919;48.792;9.202;2022-11-30T00:20:11;59.13;;;33.10;;
9759;SDS011;4919;48.792;9.202;2022-11-30T00:22:39;56.67;;;31.13;;
9759;SDS011;4919;48.792;9.202;2022-11-30T00:25:06;58.37;;;31.63;;
9759;SDS011;4919;48.792;9.202;2022-11-30T00:27:34;58.03;;;32.90;;
9759;SDS011;4919;48.792;9.202;2022-11-30T00:30:01;56.83;;;31.43;;
9759;SDS011;4919;48.792;9.202;2022-11-30T00:32:27;61.93;;;32.03;;
9759;SDS011;4919;48.792;9.202;2022-11-30T00:34:54;57.90;;;31.90;;
9759;SDS011;4919;48.792;9.202;2022-11-30T00:37:21;61.97;;;31.73;;
9759;SDS011;4919;48.792;9.202;2022-11-30T00:39:48;59.87;;;32.17;;
9759;SDS011;4919;48.792;9.202;2022-11-30T00:42:15;58.50;;;32.93;;
9759;SDS011;4919;48.792;9.202;2022-11-30T00:44:42;60.27;;;31.93;;
9759;SDS011;4919;48.792;9.202;2022-11-30T00:47:09;60.60;;;33.10;;
9759;SDS011;4919;48.792;9.202;2022-11-30T00:49:36;59.03;;;32.03;;
9759;SDS011;4919;48.792;9.202;2022-11-30T00:52:03;60.47;;;32.60;;
9759;SDS011;4919;48.792;9.202;2022-11-30T00:54:30;56.23;;;31.70;;
9759;SDS011;4919;48.792;9.202;2022-11-30T00:56:57;59.33;;;32.13;;
9759;SDS011;4919;48.792;9.202;2022-11-30T00:59:24;57.47;;;31.67;;
9759;SDS011;4919;48.792;9.202;2022-11-30T01:01:52;58.87;;;32.47;;
9759;SDS011;4919;48.792;9.202;2022-11-30T01:04:20;62.03;;;33.70;;
9759;SDS011;4919;48.792;9.202;2022-11-30T01:06:47;62.23;;;33.93;;
9759;SDS011;4919;48.792;9.202;2022-11-30T01:09:14;61.23;;;31.90;;
9759;SDS011;4919;48.792;9.202;2022-11-30T01:11:41;61.90;;;34.53;;
9759;SDS011;4919;48.792;9.202;2022-11-30T01:14:08;59.53;;;33.20;;
9759;SDS011;4919;48.792;9.202;2022-11-30T01:16:35;63.23;;;35.23;;
9759;SDS011;4919;48.792;9.202;2022-11-30T01:19:02;63.97;;;34.23;;
9759;SDS011;4919;48.792;9.202;2022-11-30T01:21:29;61.37;;;34.03;;
9759;SDS011;4919;48.792;9.202;2022-11-30T01:23:56;65.90;;;34.07;;
9759;SDS011;4919;48.792;9.202;2022-11-30T01:26:23;60.20;;;33.53;;
9759;SDS011;4919;48.792;9.202;2022-11-30T01:28:51;63.37;;;34.97;;
9759;SDS011;4919;48.792;9.202;2022-11-30T01:31:19;61.10;;;34.03;;
9759;SDS011;4919;48.792;9.202;2022-11-30T01:33:47;60.40;;;34.03;;
9759;SDS011;4919;48.792;9.202;2022-11-30T01:36:19;66.43;;;34.87;;
9759;SDS011;4919;48.792;9.202;2022-11-30T01:38:49;63.77;;;34.63;;
9759;SDS011;4919;48.792;9.202;2022-11-30T01:41:22;66.07;;;34.50;;
9759;SDS011;4919;48.792;9.202;2022-11-30T01:43:54;56.87;;;32.73;;
9759;SDS011;4919;48.792;9.202;2022-11-30T01:54:05;65.33;;;35.63;;
9759;SDS011;4919;48.792;9.202;2022-11-30T01:56:35;63.70;;;33.93;;
9759;SDS011;4919;48.792;9.202;2022-11-30T01:59:05;60.90;;;33.70;;
9759;SDS011;4919;48.792;9.202;2022-11-30T02:01:32;58.33;;;34.60;;
9759;SDS011;4919;48.792;9.202;2022-11-30T02:04:10;62.37;;;34.00;;
9759;SDS011;4919;48.792;9.202;2022-11-30T02:06:51;61.60;;;33.83;;
9759;SDS011;4919;48.792;9.202;2022-11-30T02:09:18;66.03;;;34.60;;
9759;SDS011;4919;48.792;9.202;2022-11-30T02:11:48;61.60;;;33.93;;
9759;SDS011;4919;48.792;9.202;2022-11-30T02:26:21;63.53;;;34.70;;
9759;SDS011;4919;48.792;9.202;2022-11-30T02:31:49;68.87;;;35.57;;
9759;SDS011;4919;48.792;9.202;2022-11-30T02:34:35;66.00;;;34.77;;
9759;SDS011;4919;48.792;9.202;2022-11-30T02:37:05;62.33;;;34.50;;
9759;SDS011;4919;48.792;9.202;2022-11-30T02:39:34;61.33;;;34.53;;
9759;SDS011;4919;48.792;9.202;2022-11-30T02:42:01;68.90;;;34.43;;
9759;SDS011;4919;48.792;9.202;2022-11-30T02:44:28;67.47;;;34.60;;
9759;SDS011;4919;48.792;9.202;2022-11-30T02:47:08;61.53;;;34.90;;
9759;SDS011;4919;48.792;9.202;2022-11-30T02:52:41;62.70;;;34.00;;
9759;SDS011;4919;48.792;9.202;2022-11-30T02:55:09;64.83;;;35.03;;
9759;SDS011;4919;48.792;9.202;2022-11-30T02:57:40;63.47;;;33.60;;
9759;SDS011;4919;48.792;9.202;2022-11-30T03:00:08;66.50;;;35.73;;
9759;SDS011;4919;48.792;9.202;2022-11-30T03:02:36;65.67;;;34.73;;
9759;SDS011;4919;48.792;9.202;2022-11-30T03:05:04;64.40;;;33.97;;
9759;SDS011;4919;48.792;9.202;2022-11-30T03:07:31;63.57;;;35.07;;
9759;SDS011;4919;48.792;9.202;2022-11-30T03:09:58;62.67;;;33.37;;
9759;SDS011;4919;48.792;9.202;2022-11-30T03:12:25;62.67;;;34.63;;
9759;SDS011;4919;48.792;9.202;2022-11-30T03:14:53;60.93;;;33.80;;
9759;SDS011;4919;48.792;9.202;2022-11-30T03:17:20;64.83;;;34.13;;
9759;SDS011;4919;48.792;9.202;2022-11-30T03:19:47;64.53;;;35.90;;
9759;SDS011;4919;48.792;9.202;2022-11-30T03:22:14;62.00;;;33.07;;
9759;SDS011;4919;48.792;9.202;2022-11-30T03:24:40;64.10;;;33.53;;
9759;SDS011;4919;48.792;9.202;2022-11-30T03:27:07;59.87;;;33.47;;
9759;SDS011;4919;48.792;9.202;2022-11-30T03:29:34;64.37;;;34.27;;
9759;SDS011;4919;48.792;9.202;2022-11-30T03:32:01;62.03;;;34.03;;
9759;SDS011;4919;48.792;9.202;2022-11-30T03:34:28;59.33;;;33.00;;
9759;SDS011;4919;48.792;9.202;2022-11-30T03:36:55;63.70;;;34.90;;
9759;SDS011;4919;48.792;9.202;2022-11-30T03:39:22;65.73;;;35.33;;
9759;SDS011;4919;48.792;9.202;2022-11-30T03:41:50;60.90;;;34.43;;
9759;SDS011;4919;48.792;9.202;2022-11-30T03:44:16;61.30;;;33.97;;
9759;SDS011;4919;48.792;9.202;2022-11-30T03:46:44;65.47;;;35.80;;
9759;SDS011;4919;48.792;9.202;2022-11-30T03:49:11;66.93;;;35.70;;
9759;SDS011;4919;48.792;9.202;2022-11-30T03:51:38;59.87;;;33.30;;
9759;SDS011;4919;48.792;9.202;2022-11-30T03:54:05;62.70;;;33.13;;
9759;SDS011;4919;48.792;9.202;2022-11-30T03:56:31;58.30;;;34.20;;
9759;SDS011;4919;48.792;9.202;2022-11-30T03:58:58;62.50;;;33.97;;
9759;SDS011;4919;48.792;9.202;2022-11-30T04:01:25;61.37;;;33.70;;
9759;SDS011;4919;48.792;9.202;2022-11-30T04:03:53;60.50;;;34.47;;
9759;SDS011;4919;48.792;9.202;2022-11-30T04:06:20;63.03;;;34.53;;
9759;SDS011;4919;48.792;9.202;2022-11-30T04:08:47;64.30;;;33.93;;
9759;SDS011;4919;48.792;9.202;2022-11-30T04:11:14;63.67;;;34.10;;
9759;SDS011;4919;48.792;9.202;2022-11-30T04:13:41;63.23;;;34.73;;
9759;SDS011;4919;48.792;9.202;2022-11-30T04:16:09;67.23;;;34.70;;
9759;SDS011;4919;48.792;9.202;2022-11-30T04:18:36;61.40;;;34.13;;
9759;SDS011;4919;48.792;9.202;2022-11-30T04:21:04;63.37;;;34.07;;
9759;SDS011;4919;48.792;9.202;2022-11-30T04:23:33;64.30;;;33.93;;
9759;SDS011;4919;48.792;9.202;2022-11-30T04:26:02;68.63;;;34.97;;
9759;SDS011;4919;48.792;9.202;2022-11-30T04:28:33;61.80;;;34.63;;
9759;SDS011;4919;48.792;9.202;2022-11-30T04:31:00;60.33;;;33.07;;
9759;SDS011;4919;48.792;9.202;2022-11-30T04:33:28;67.57;;;35.50;;
9759;SDS011;4919;48.792;9.202;2022-11-30T04:36:03;66.93;;;35.23;;
9759;SDS011;4919;48.792;9.202;2022-11-30T04:38:31;67.40;;;35.20;;
9759;SDS011;4919;48.792;9.202;2022-11-30T04:41:04;61.53;;;34.70;;
9759;SDS011;4919;48.792;9.202;2022-11-30T04:43:33;64.80;;;34.20;;
9759;SDS011;4919;48.792;9.202;2022-11-30T04:45:59;66.37;;;35.07;;
9759;SDS011;4919;48.792;9.202;2022-11-30T04:48:26;67.83;;;34.27;;
9759;SDS011;4919;48.792;9.202;2022-11-30T04:50:53;65.87;;;34.83;;
9759;SDS011;4919;48.792;9.202;2022-11-30T04:53:24;67.23;;;34.80;;
9759;SDS011;4919;48.792;9.202;2022-11-30T04:55:51;68.20;;;36.60;;
9759;SDS011;4919;48.792;9.202;2022-11-30T04:58:18;65.37;;;34.07;;
9759;SDS011;4919;48.792;9.202;2022-11-30T05:00:45;69.07;;;35.33;;
9759;SDS011;4919;48.792;9.202;2022-11-30T05:03:12;65.47;;;35.67;;
9759;SDS011;4919;48.792;9.202;2022-11-30T05:05:38;67.30;;;35.73;;
9759;SDS011;4919;48.792;9.202;2022-11-30T05:08:05;70.63;;;35.53;;
9759;SDS011;4919;48.792;9.202;2022-11-30T05:10:32;67.20;;;35.00;;
9759;SDS011;4919;48.792;9.202;2022-11-30T05:12:59;68.07;;;35.37;;
9759;SDS011;4919;48.792;9.202;2022-11-30T05:15:26;61.23;;;35.03;;
9759;SDS011;4919;48.792;9.202;2022-11-30T05:17:56;64.80;;;34.00;;
9759;SDS011;4919;48.792;9.202;2022-11-30T05:20:24;66.03;;;35.93;;
9759;SDS011;4919;48.792;9.202;2022-11-30T05:22:51;66.80;;;35.93;;
9759;SDS011;4919;48.792;9.202;2022-11-30T05:25:17;66.27;;;35.37;;
9759;SDS011;4919;48.792;9.202;2022-11-30T05:27:44;67.20;;;35.33;;
9759;SDS011;4919;48.792;9.202;2022-11-30T05:30:12;63.90;;;33.67;;
9759;SDS011;4919;48.792;9.202;2022-11-30T05:32:40;63.80;;;35.00;;
9759;SDS011;4919;48.792;9.202;2022-11-30T05:35:06;64.87;;;35.43;;
9759;SDS011;4919;48.792;9.202;2022-11-30T05:37:34;60.30;;;34.40;;
9759;SDS011;4919;48.792;9.202;2022-11-30T05:40:01;62.60;;;34.47;;
9759;SDS011;4919;48.792;9.202;2022-11-30T05:42:28;64.27;;;34.93;;
9759;SDS011;4919;48.792;9.202;2022-11-30T05:44:55;64.00;;;34.43;;
9759;SDS011;4919;48.792;9.202;2022-11-30T05:47:22;62.10;;;33.00;;
9759;SDS011;4919;48.792;9.202;2022-11-30T05:49:48;66.03;;;34.97;;
9759;SDS011;4919;48.792;9.202;2022-11-30T05:52:15;61.23;;;33.90;;
9759;SDS011;4919;48.792;9.202;2022-11-30T05:54:42;62.67;;;34.00;;
9759;SDS011;4919;48.792;9.202;2022-11-30T05:57:09;59.07;;;33.73;;
9759;SDS011;4919;48.792;9.202;2022-11-30T05:59:36;63.83;;;33.97;;
9759;SDS011;4919;48.792;9.202;2022-11-30T06:02:02;59.23;;;33.90;;
9759;SDS011;4919;48.792;9.202;2022-11-30T06:04:30;63.80;;;33.63;;
9759;SDS011;4919;48.792;9.202;2022-11-30T06:06:58;61.07;;;33.40;;
9759;SDS011;4919;48.792;9.202;2022-11-30T06:09:25;63.10;;;33.57;;
9759;SDS011;4919;48.792;9.202;2022-11-30T06:11:52;65.37;;;34.40;;
9759;SDS011;4919;48.792;9.202;2022-11-30T06:14:19;60.13;;;34.13;;
9759;SDS011;4919;48.792;9.202;2022-11-30T06:16:46;65.27;;;32.63;;
9759;SDS011;4919;48.792;9.202;2022-11-30T06:19:12;60.30;;;32.13;;
9759;SDS011;4919;48.792;9.202;2022-11-30T06:21:39;62.10;;;34.10;;
9759;SDS011;4919;48.792;9.202;2022-11-30T06:24:06;63.13;;;34.40;;
9759;SDS011;4919;48.792;9.202;2022-11-30T06:26:33;61.27;;;33.37;;
9759;SDS011;4919;48.792;9.202;2022-11-30T06:29:00;58.27;;;32.30;;
9759;SDS011;4919;48.792;9.202;2022-11-30T06:31:27;61.00;;;33.10;;
9759;SDS011;4919;48.792;9.202;2022-11-30T06:33:56;59.67;;;33.23;;
9759;SDS011;4919;48.792;9.202;2022-11-30T06:36:24;59.07;;;32.63;;
9759;SDS011;4919;48.792;9.202;2022-11-30T06:38:57;58.77;;;32.83;;
9759;SDS011;4919;48.792;9.202;2022-11-30T06:41:24;57.73;;;32.63;;
9759;SDS011;4919;48.792;9.202;2022-11-30T06:43:51;60.50;;;32.20;;
9759;SDS011;4919;48.792;9.202;2022-11-30T06:46:18;58.60;;;32.07;;
9759;SDS011;4919;48.792;9.202;2022-11-30T06:48:47;55.60;;;31.47;;
9759;SDS011;4919;48.792;9.202;2022-11-30T06:51:17;62.40;;;32.63;;
9759;SDS011;4919;48.792;9.202;2022-11-30T06:53:44;55.27;;;30.40;;
9759;SDS011;4919;48.792;9.202;2022-11-30T06:56:11;59.57;;;31.83;;
9759;SDS011;4919;48.792;9.202;2022-11-30T06:58:38;56.70;;;33.03;;
9759;SDS011;4919;48.792;9.202;2022-11-30T07:01:07;59.53;;;31.70;;
9759;SDS011;4919;48.792;9.202;2022-11-30T07:03:39;57.93;;;32.13;;
9759;SDS011;4919;48.792;9.202;2022-11-30T07:06:07;57.40;;;32.03;;
9759;SDS011;4919;48.792;9.202;2022-11-30T07:08:36;58.30;;;32.70;;
9759;SDS011;4919;48.792;9.202;2022-11-30T07:11:03;56.30;;;31.13;;
9759;SDS011;4919;48.792;9.202;2022-11-30T07:13:31;59.03;;;32.67;;
9759;SDS011;4919;48.792;9.202;2022-11-30T07:15:58;55.20;;;32.07;;
9759;SDS011;4919;48.792;9.202;2022-11-30T07:18:28;54.53;;;31.47;;
9759;SDS011;4919;48.792;9.202;2022-11-30T07:20:58;58.10;;;31.63;;
9759;SDS011;4919;48.792;9.202;2022-11-30T07:23:26;60.23;;;32.20;;
9759;SDS011;4919;48.792;9.202;2022-11-30T07:26:19;61.70;;;31.57;;
9759;SDS011;4919;48.792;9.202;2022-11-30T07:28:47;58.00;;;31.07;;
9759;SDS011;4919;48.792;9.202;2022-11-30T07:31:21;58.93;;;32.23;;
9759;SDS011;4919;48.792;9.202;2022-11-30T07:33:50;61.83;;;33.43;;
9759;SDS011;4919;48.792;9.202;2022-11-30T07:36:19;59.53;;;32.40;;
9759;SDS011;4919;48.792;9.202;2022-11-30T07:38:47;56.17;;;32.20;;
9759;SDS011;4919;48.792;9.202;2022-11-30T07:41:14;56.23;;;31.37;;
9759;SDS011;4919;48.792;9.202;2022-11-30T07:43:41;56.83;;;30.77;;
9759;SDS011;4919;48.792;9.202;2022-11-30T07:46:10;58.30;;;31.23;;
9759;SDS011;4919;48.792;9.202;2022-11-30T07:48:38;60.13;;;32.73;;
9759;SDS011;4919;48.792;9.202;2022-11-30T07:51:06;58.90;;;31.93;;
9759;SDS011;4919;48.792;9.202;2022-11-30T07:53:39;54.83;;;30.13;;
9759;SDS011;4919;48.792;9.202;2022-11-30T07:56:07;57.73;;;31.63;;
9759;SDS011;4919;48.792;9.202;2022-11-30T07:58:36;56.20;;;31.83;;
9759;SDS011;4919;48.792;9.202;2022-11-30T08:01:05;56.87;;;30.63;;
9759;SDS011;4919;48.792;9.202;2022-11-30T08:03:34;55.77;;;30.77;;
9759;SDS011;4919;48.792;9.202;2022-11-30T08:06:03;59.47;;;32.23;;
9759;SDS011;4919;48.792;9.202;2022-11-30T08:08:36;55.53;;;31.30;;
9759;SDS011;4919;48.792;9.202;2022-11-30T08:11:05;53.03;;;30.67;;
9759;SDS011;4919;48.792;9.202;2022-11-30T08:13:33;55.00;;;30.90;;
9759;SDS011;4919;48.792;9.202;2022-11-30T08:16:01;55.37;;;31.47;;
9759;SDS011;4919;48.792;9.202;2022-11-30T08:18:29;53.90;;;29.83;;
9759;SDS011;4919;48.792;9.202;2022-11-30T08:21:00;53.60;;;29.73;;
9759;SDS011;4919;48.792;9.202;2022-11-30T08:23:29;54.57;;;30.20;;
9759;SDS011;4919;48.792;9.202;2022-11-30T08:26:02;54.97;;;30.43;;
9759;SDS011;4919;48.792;9.202;2022-11-30T08:28:33;55.60;;;31.13;;
9759;SDS011;4919;48.792;9.202;2022-11-30T08:31:04;58.73;;;31.27;;
9759;SDS011;4919;48.792;9.202;2022-11-30T08:33:33;51.97;;;29.53;;
9759;SDS011;4919;48.792;9.202;2022-11-30T08:36:06;57.60;;;29.93;;
9759;SDS011;4919;48.792;9.202;2022-11-30T08:38:34;56.37;;;30.10;;
9759;SDS011;4919;48.792;9.202;2022-11-30T08:41:02;55.13;;;29.87;;
9759;SDS011;4919;48.792;9.202;2022-11-30T08:43:30;53.87;;;31.07;;
9759;SDS011;4919;48.792;9.202;2022-11-30T08:45:57;53.63;;;30.57;;
9759;SDS011;4919;48.792;9.202;2022-11-30T08:48:24;50.33;;;29.37;;
9759;SDS011;4919;48.792;9.202;2022-11-30T08:50:51;56.10;;;30.33;;
9759;SDS011;4919;48.792;9.202;2022-11-30T08:53:17;52.97;;;30.30;;
9759;SDS011;4919;48.792;9.202;2022-11-30T08:55:53;48.67;;;28.67;;
9759;SDS011;4919;48.792;9.202;2022-11-30T08:58:24;48.70;;;29.30;;
9759;SDS011;4919;48.792;9.202;2022-11-30T09:00:52;52.53;;;29.07;;
9759;SDS011;4919;48.792;9.202;2022-11-30T09:03:19;55.87;;;30.23;;
9759;SDS011;4919;48.792;9.202;2022-11-30T09:05:46;48.63;;;28.90;;
9759;SDS011;4919;48.792;9.202;2022-11-30T09:08:12;53.03;;;30.07;;
9759;SDS011;4919;48.792;9.202;2022-11-30T09:10:39;52.27;;;28.97;;
9759;SDS011;4919;48.792;9.202;2022-11-30T09:13:06;52.47;;;30.83;;
9759;SDS011;4919;48.792;9.202;2022-11-30T09:15:33;56.40;;;31.07;;
9759;SDS011;4919;48.792;9.202;2022-11-30T09:18:00;52.93;;;31.07;;
9759;SDS011;4919;48.792;9.202;2022-11-30T09:20:27;54.17;;;31.33;;
9759;SDS011;4919;48.792;9.202;2022-11-30T09:22:53;53.27;;;30.73;;
9759;SDS011;4919;48.792;9.202;2022-11-30T09:25:20;57.87;;;30.97;;
9759;SDS011;4919;48.792;9.202;2022-11-30T09:27:47;53.97;;;30.07;;
9759;SDS011;4919;48.792;9.202;2022-11-30T09:30:14;57.67;;;31.53;;
9759;SDS011;4919;48.792;9.202;2022-11-30T09:32:41;59.50;;;31.20;;
9759;SDS011;4919;48.792;9.202;2022-11-30T09:35:08;54.67;;;30.17;;
9759;SDS011;4919;48.792;9.202;2022-11-30T09:37:38;52.23;;;30.77;;
9759;SDS011;4919;48.792;9.202;2022-11-30T09:40:05;56.30;;;31.73;;
9759;SDS011;4919;48.792;9.202;2022-11-30T09:42:55;54.60;;;30.23;;
9759;SDS011;4919;48.792;9.202;2022-11-30T09:45:27;53.23;;;30.03;;
9759;SDS011;4919;48.792;9.202;2022-11-30T09:48:09;57.90;;;29.97;;
9759;SDS011;4919;48.792;9.202;2022-11-30T09:50:54;50.87;;;29.60;;
9759;SDS011;4919;48.792;9.202;2022-11-30T09:53:35;52.50;;;29.30;;
9759;SDS011;4919;48.792;9.202;2022-11-30T10:01:47;50.50;;;28.13;;
9759;SDS011;4919;48.792;9.202;2022-11-30T10:04:23;50.80;;;29.93;;
9759;SDS011;4919;48.792;9.202;2022-11-30T10:09:49;52.57;;;29.63;;
9759;SDS011;4919;48.792;9.202;2022-11-30T10:13:05;53.73;;;30.27;;
9759;SDS011;4919;48.792;9.202;2022-11-30T10:21:12;53.93;;;28.83;;
9759;SDS011;4919;48.792;9.202;2022-11-30T10:26:26;47.83;;;27.90;;
9759;SDS011;4919;48.792;9.202;2022-11-30T10:31:46;49.93;;;28.63;;
9759;SDS011;4919;48.792;9.202;2022-11-30T10:34:23;48.30;;;28.73;;
9759;SDS011;4919;48.792;9.202;2022-11-30T10:39:57;46.97;;;28.40;;
9759;SDS011;4919;48.792;9.202;2022-11-30T10:42:46;49.20;;;28.43;;
9759;SDS011;4919;48.792;9.202;2022-11-30T10:45:30;49.03;;;28.70;;
9759;SDS011;4919;48.792;9.202;2022-11-30T10:50:30;50.50;;;29.67;;
9759;SDS011;4919;48.792;9.202;2022-11-30T10:52:58;50.03;;;28.50;;
9759;SDS011;4919;48.792;9.202;2022-11-30T10:55:27;51.93;;;29.17;;
9759;SDS011;4919;48.792;9.202;2022-11-30T10:58:08;53.27;;;29.97;;
9759;SDS011;4919;48.792;9.202;2022-11-30T11:03:29;52.23;;;30.53;;
9759;SDS011;4919;48.792;9.202;2022-11-30T11:06:04;49.30;;;28.97;;
9759;SDS011;4919;48.792;9.202;2022-11-30T11:08:42;50.77;;;28.67;;
9759;SDS011;4919;48.792;9.202;2022-11-30T11:11:34;56.23;;;30.60;;
9759;SDS011;4919;48.792;9.202;2022-11-30T11:14:07;51.57;;;29.00;;
9759;SDS011;4919;48.792;9.202;2022-11-30T11:16:51;55.10;;;30.97;;
9759;SDS011;4919;48.792;9.202;2022-11-30T11:24:43;52.77;;;30.57;;
9759;SDS011;4919;48.792;9.202;2022-11-30T11:27:30;53.73;;;31.27;;
9759;SDS011;4919;48.792;9.202;2022-11-30T11:33:01;53.07;;;29.83;;
9759;SDS011;4919;48.792;9.202;2022-11-30T11:35:45;53.73;;;30.27;;
9759;SDS011;4919;48.792;9.202;2022-11-30T11:38:26;54.17;;;31.20;;
9759;SDS011;4919;48.792;9.202;2022-11-30T11:43:25;53.97;;;31.87;;
9759;SDS011;4919;48.792;9.202;2022-11-30T11:46:17;51.77;;;29.93;;
9759;SDS011;4919;48.792;9.202;2022-11-30T11:51:31;48.07;;;29.87;;
9759;SDS011;4919;48.792;9.202;2022-11-30T11:54:14;54.40;;;31.03;;
9759;SDS011;4919;48.792;9.202;2022-11-30T11:56:48;53.23;;;29.17;;
9759;SDS011;4919;48.792;9.202;2022-11-30T11:59:29;52.30;;;30.17;;
9759;SDS011;4919;48.792;9.202;2022-11-30T12:02:43;54.60;;;30.67;;
9759;SDS011;4919;48.792;9.202;2022-11-30T12:05:22;54.27;;;31.07;;
9759;SDS011;4919;48.792;9.202;2022-11-30T12:10:49;51.33;;;30.10;;
9759;SDS011;4919;48.792;9.202;2022-11-30T12:13:40;45.90;;;29.83;;
9759;SDS011;4919;48.792;9.202;2022-11-30T12:24:42;48.40;;;30.80;;
9759;SDS011;4919;48.792;9.202;2022-11-30T12:27:39;52.60;;;32.37;;
9759;SDS011;4919;48.792;9.202;2022-11-30T12:30:23;56.40;;;34.77;;
9759;SDS011;4919;48.792;9.202;2022-11-30T12:38:48;52.83;;;31.30;;
9759;SDS011;4919;48.792;9.202;2022-11-30T12:52:58;48.57;;;29.00;;
9759;SDS011;4919;48.792;9.202;2022-11-30T12:55:54;51.40;;;29.70;;
9759;SDS011;4919;48.792;9.202;2022-11-30T12:59:01;50.07;;;30.17;;
9759;SDS011;4919;48.792;9.202;2022-11-30T13:04:29;56.17;;;31.57;;
9759;SDS011;4919;48.792;9.202;2022-11-30T13:07:04;54.10;;;31.33;;
9759;SDS011;4919;48.792;9.202;2022-11-30T13:12:46;56.37;;;33.07;;
9759;SDS011;4919;48.792;9.202;2022-11-30T13:15:17;56.40;;;32.60;;
9759;SDS011;4919;48.792;9.202;2022-11-30T13:17:58;58.67;;;33.47;;
9759;SDS011;4919;48.792;9.202;2022-11-30T13:20:29;60.50;;;34.40;;
9759;SDS011;4919;48.792;9.202;2022-11-30T13:23:15;65.70;;;35.13;;
9759;SDS011;4919;48.792;9.202;2022-11-30T13:31:09;65.90;;;34.93;;
9759;SDS011;4919;48.792;9.202;2022-11-30T13:36:36;65.97;;;35.57;;
9759;SDS011;4919;48.792;9.202;2022-11-30T13:41:41;64.87;;;34.97;;
9759;SDS011;4919;48.792;9.202;2022-11-30T13:44:23;65.43;;;34.27;;
9759;SDS011;4919;48.792;9.202;2022-11-30T13:47:04;70.47;;;35.40;;
9759;SDS011;4919;48.792;9.202;2022-11-30T13:49:41;70.40;;;35.57;;
9759;SDS011;4919;48.792;9.202;2022-11-30T13:52:10;71.27;;;35.90;;
9759;SDS011;4919;48.792;9.202;2022-11-30T13:54:49;71.57;;;35.53;;
9759;SDS011;4919;48.792;9.202;2022-11-30T13:59:56;68.63;;;34.87;;
9759;SDS011;4919;48.792;9.202;2022-11-30T14:13:00;70.03;;;33.60;;
9759;SDS011;4919;48.792;9.202;2022-11-30T14:25:58;75.33;;;35.30;;
9759;SDS011;4919;48.792;9.202;2022-11-30T14:31:32;78.33;;;35.00;;
9759;SDS011;4919;48.792;9.202;2022-11-30T14:34:24;85.60;;;38.57;;
9759;SDS011;4919;48.792;9.202;2022-11-30T14:36:55;84.33;;;37.03;;
9759;SDS011;4919;48.792;9.202;2022-11-30T14:39:32;78.77;;;35.50;;
9759;SDS011;4919;48.792;9.202;2022-11-30T14:41:59;79.77;;;34.57;;
9759;SDS011;4919;48.792;9.202;2022-11-30T14:44:32;79.37;;;34.77;;
9759;SDS011;4919;48.792;9.202;2022-11-30T14:50:03;80.80;;;35.80;;
9759;SDS011;4919;48.792;9.202;2022-11-30T15:01:12;79.47;;;35.43;;
9759;SDS011;4919;48.792;9.202;2022-11-30T15:03:44;81.87;;;35.83;;
9759;SDS011;4919;48.792;9.202;2022-11-30T15:06:13;87.13;;;36.73;;
9759;SDS011;4919;48.792;9.202;2022-11-30T15:08:46;87.67;;;36.97;;
9759;SDS011;4919;48.792;9.202;2022-11-30T15:11:17;90.03;;;36.73;;
9759;SDS011;4919;48.792;9.202;2022-11-30T15:13:46;90.47;;;36.07;;
9759;SDS011;4919;48.792;9.202;2022-11-30T15:18:50;83.93;;;36.60;;
9759;SDS011;4919;48.792;9.202;2022-11-30T15:21:22;84.67;;;36.83;;
9759;SDS011;4919;48.792;9.202;2022-11-30T15:23:58;94.63;;;35.83;;
9759;SDS011;4919;48.792;9.202;2022-11-30T15:26:27;93.10;;;36.67;;
9759;SDS011;4919;48.792;9.202;2022-11-30T15:29:22;94.03;;;37.80;;
9759;SDS011;4919;48.792;9.202;2022-11-30T15:31:53;85.20;;;35.63;;
9759;SDS011;4919;48.792;9.202;2022-11-30T15:36:52;92.97;;;35.23;;
9759;SDS011;4919;48.792;9.202;2022-11-30T15:39:21;84.47;;;34.83;;
9759;SDS011;4919;48.792;9.202;2022-11-30T15:41:55;90.30;;;34.47;;
9759;SDS011;4919;48.792;9.202;2022-11-30T15:44:36;87.80;;;33.57;;
9759;SDS011;4919;48.792;9.202;2022-11-30T15:49:56;89.93;;;32.97;;
9759;SDS011;4919;48.792;9.202;2022-11-30T15:52:24;84.57;;;33.27;;
9759;SDS011;4919;48.792;9.202;2022-11-30T15:54:57;86.90;;;34.33;;
9759;SDS011;4919;48.792;9.202;2022-11-30T15:57:54;90.50;;;34.20;;
9759;SDS011;4919;48.792;9.202;2022-11-30T16:00:27;91.53;;;32.93;;
9759;SDS011;4919;48.792;9.202;2022-11-30T16:03:10;92.07;;;34.13;;
9759;SDS011;4919;48.792;9.202;2022-11-30T16:05:38;79.57;;;31.50;;
9759;SDS011;4919;48.792;9.202;2022-11-30T16:08:13;94.03;;;34.70;;
9759;SDS011;4919;48.792;9.202;2022-11-30T16:10:41;84.83;;;31.37;;
9759;SDS011;4919;48.792;9.202;2022-11-30T16:13:12;85.47;;;31.80;;
9759;SDS011;4919;48.792;9.202;2022-11-30T16:15:45;90.40;;;33.90;;
9759;SDS011;4919;48.792;9.202;2022-11-30T16:18:14;88.33;;;33.43;;
9759;SDS011;4919;48.792;9.202;2022-11-30T16:20:42;84.17;;;31.57;;
9759;SDS011;4919;48.792;9.202;2022-11-30T16:23:11;95.90;;;32.60;;
9759;SDS011;4919;48.792;9.202;2022-11-30T16:25:39;82.87;;;32.47;;
9759;SDS011;4919;48.792;9.202;2022-11-30T16:28:08;91.30;;;33.93;;
9759;SDS011;4919;48.792;9.202;2022-11-30T16:30:35;86.17;;;32.47;;
9759;SDS011;4919;48.792;9.202;2022-11-30T16:33:03;104.43;;;39.23;;
9759;SDS011;4919;48.792;9.202;2022-11-30T16:35:34;99.77;;;34.00;;
9759;SDS011;4919;48.792;9.202;2022-11-30T16:38:04;80.53;;;32.90;;
9759;SDS011;4919;48.792;9.202;2022-11-30T16:40:32;94.63;;;35.00;;
9759;SDS011;4919;48.792;9.202;2022-11-30T16:43:04;94.13;;;32.40;;
9759;SDS011;4919;48.792;9.202;2022-11-30T16:45:34;96.70;;;32.27;;
9759;SDS011;4919;48.792;9.202;2022-11-30T16:48:03;80.37;;;30.37;;
9759;SDS011;4919;48.792;9.202;2022-11-30T16:50:30;87.63;;;32.47;;
9759;SDS011;4919;48.792;9.202;2022-11-30T16:53:00;93.07;;;32.20;;
9759;SDS011;4919;48.792;9.202;2022-11-30T16:55:28;96.07;;;34.33;;
9759;SDS011;4919;48.792;9.202;2022-11-30T16:57:57;97.17;;;35.07;;
9759;SDS011;4919;48.792;9.202;2022-11-30T17:00:24;85.93;;;31.10;;
9759;SDS011;4919;48.792;9.202;2022-11-30T17:02:55;105.73;;;34.50;;
9759;SDS011;4919;48.792;9.202;2022-11-30T17:05:25;87.60;;;33.80;;
9759;SDS011;4919;48.792;9.202;2022-11-30T17:07:53;85.40;;;32.47;;
9759;SDS011;4919;48.792;9.202;2022-11-30T17:10:20;91.80;;;33.93;;
9759;SDS011;4919;48.792;9.202;2022-11-30T17:12:47;96.27;;;34.37;;
9759;SDS011;4919;48.792;9.202;2022-11-30T17:15:16;89.40;;;32.73;;
9759;SDS011;4919;48.792;9.202;2022-11-30T17:17:45;87.50;;;32.53;;
9759;SDS011;4919;48.792;9.202;2022-11-30T17:20:13;93.90;;;34.10;;
9759;SDS011;4919;48.792;9.202;2022-11-30T17:22:41;94.30;;;33.43;;
9759;SDS011;4919;48.792;9.202;2022-11-30T17:25:13;85.03;;;32.97;;
9759;SDS011;4919;48.792;9.202;2022-11-30T17:27:42;89.10;;;33.03;;
9759;SDS011;4919;48.792;9.202;2022-11-30T17:30:10;85.77;;;32.37;;
9759;SDS011;4919;48.792;9.202;2022-11-30T17:32:39;83.37;;;31.43;;
9759;SDS011;4919;48.792;9.202;2022-11-30T17:35:06;91.10;;;31.63;;
9759;SDS011;4919;48.792;9.202;2022-11-30T17:37:36;77.57;;;29.23;;
9759;SDS011;4919;48.792;9.202;2022-11-30T17:40:03;85.47;;;30.87;;
9759;SDS011;4919;48.792;9.202;2022-11-30T17:42:32;86.73;;;33.17;;
9759;SDS011;4919;48.792;9.202;2022-11-30T17:44:59;87.60;;;32.50;;
9759;SDS011;4919;48.792;9.202;2022-11-30T17:47:26;90.70;;;31.93;;